Cullasaja, North Carolina
Current Conditions -  °F | °C
As of 7:15 PM on Monday 20 Oct 2014 (Local Time) from KRHP Reporting Station
Overcast Overcast  
Wind Chill: 57°   Ceiling: 9000
Heat Index: 57°   Visibility: 10mi
Dew Point: 54°   Wind: 0mph
Humidity: 90%   Direction: NA
Pressure: 30.01"   Gusts: NA
Location:  35.1737°N, 83.4215°W
Report Text: KRHP 202315Z AUTO 00000KT 10SM OVC090 14/12 A3001 RMK AO2 T01410124
Loading
Personal Weather Stations






























Interactive Weather Map
Tropical Storm Tracking
New forecast layout! Learn more

10-Day Weather Forecast

Advertisements
Track Severe Weather on mobile